createdAt,value
2019-04-05T00:00:37.522Z,50.15
2019-04-05T00:04:41.139Z,51.68
2019-04-05T00:08:44.751Z,53.05
2019-04-05T00:12:48.364Z,54.18
2019-04-05T00:16:52.093Z,53.55
2019-04-05T00:20:55.711Z,50.30
2019-04-05T00:24:59.314Z,56.00
2019-04-05T00:29:03.229Z,53.08
2019-04-05T00:33:06.971Z,58.05
2019-04-05T00:37:10.663Z,57.10
2019-04-05T00:41:14.275Z,58.28
2019-04-05T00:45:27.448Z,60.00
2019-04-05T00:49:23.551Z,56.08
2019-04-05T00:53:27.268Z,55.52
2019-04-05T00:57:30.988Z,55.98
2019-04-05T01:01:35.000Z,55.08
2019-04-05T01:05:39.645Z,57.70
2019-04-05T01:09:43.360Z,58.25
2019-04-05T01:13:47.078Z,57.60
2019-04-05T01:17:51.099Z,58.17
2019-04-05T01:21:56.351Z,54.70
2019-04-05T01:26:01.762Z,52.70
2019-04-05T01:30:11.772Z,52.15
2019-04-05T01:34:15.547Z,52.10
2019-04-05T01:38:19.410Z,52.40
2019-04-05T01:42:23.330Z,50.50
2019-04-05T01:46:27.047Z,50.90
2019-04-05T01:50:31.073Z,52.20
2019-04-05T01:54:34.789Z,52.50
2019-04-05T01:58:38.402Z,51.42
2019-04-05T02:02:42.534Z,50.20
2019-04-05T02:06:46.260Z,52.67
2019-04-05T02:10:49.979Z,52.27
2019-04-05T02:14:53.606Z,51.73
2019-04-05T02:18:57.211Z,51.85
2019-04-05T02:23:01.054Z,50.85
2019-04-05T02:27:04.846Z,50.60
2019-04-05T02:31:08.572Z,54.30
2019-04-05T02:35:12.788Z,52.73
2019-04-05T02:39:16.503Z,52.33
2019-04-05T02:43:21.755Z,56.10
2019-04-05T02:47:25.779Z,53.28
2019-04-05T02:51:31.749Z,55.48
2019-04-05T02:55:37.761Z,56.15
2019-04-05T02:59:42.425Z,59.15
2019-04-05T03:03:46.379Z,55.73
2019-04-05T03:07:50.402Z,56.68
2019-04-05T03:11:54.625Z,54.35
2019-04-05T03:16:01.561Z,58.33
2019-04-05T03:20:06.636Z,59.50
2019-04-05T03:24:13.367Z,57.75
2019-04-05T03:28:17.570Z,55.28
2019-04-05T03:32:21.557Z,59.75
2019-04-05T03:36:25.685Z,58.52
2019-04-05T03:40:29.654Z,59.88
2019-04-05T03:44:33.609Z,60.23
2019-04-05T03:48:37.444Z,59.35
2019-04-05T03:52:41.314Z,57.98
2019-04-05T03:56:45.012Z,56.15
2019-04-05T04:00:48.757Z,59.77
2019-04-05T04:04:52.554Z,58.23
2019-04-05T04:08:56.733Z,56.85
2019-04-05T04:13:00.750Z,58.40
2019-04-05T04:17:12.760Z,57.62
2019-04-05T04:21:34.152Z,58.70
2019-04-05T04:25:39.186Z,58.28
2019-04-05T04:29:42.919Z,57.10
2019-04-05T04:33:47.351Z,53.58
2019-04-05T04:37:51.375Z,51.95
2019-04-05T04:41:55.194Z,55.43
2019-04-05T04:45:59.111Z,54.18
2019-04-05T04:50:03.008Z,55.08
2019-04-05T04:54:06.855Z,54.98
2019-04-05T04:58:10.876Z,56.17
2019-04-05T05:02:14.695Z,54.40
2019-04-05T05:06:18.512Z,53.92
2019-04-05T05:10:22.434Z,54.03
2019-04-05T05:14:27.199Z,53.52
2019-04-05T05:18:31.049Z,52.60
2019-04-05T05:22:35.326Z,54.45
2019-04-05T05:26:39.449Z,51.75
2019-04-05T05:30:43.266Z,53.55
2019-04-05T05:34:47.191Z,54.83
2019-04-05T05:38:51.475Z,56.08
2019-04-05T05:42:55.233Z,56.37
2019-04-05T05:46:58.950Z,55.85
2019-04-05T05:51:02.828Z,55.38
2019-04-05T05:55:06.994Z,58.20
2019-04-05T05:59:10.611Z,57.25
2019-04-05T06:03:16.662Z,61.25
2019-04-05T06:07:20.175Z,58.17
2019-04-05T06:11:24.011Z,59.45
2019-04-05T06:15:27.629Z,60.00
2019-04-05T06:19:31.237Z,59.75
2019-04-05T06:23:34.854Z,57.93
2019-04-05T06:27:38.568Z,60.00
2019-04-05T06:31:42.331Z,58.10
2019-04-05T06:35:45.941Z,57.00
2019-04-05T06:39:49.717Z,59.00
2019-04-05T06:43:53.279Z,58.35
2019-04-05T06:47:56.944Z,54.30
2019-04-05T06:52:00.558Z,55.50
2019-04-05T06:56:04.386Z,55.23
2019-04-05T07:00:08.295Z,53.45
2019-04-05T07:04:11.967Z,51.18
2019-04-05T07:08:18.143Z,52.62
2019-04-05T07:12:20.965Z,54.23
2019-04-05T07:16:24.653Z,52.45
2019-04-05T07:20:28.267Z,52.93
2019-04-05T07:24:31.878Z,52.13
2019-04-05T07:28:35.597Z,52.03
2019-04-05T07:32:39.209Z,52.80
2019-04-05T07:36:42.826Z,50.73
2019-04-05T07:40:46.538Z,53.17
2019-04-05T07:44:51.282Z,52.25
2019-04-05T07:48:54.997Z,50.60
2019-04-05T07:52:58.673Z,49.58
2019-04-05T07:57:02.439Z,48.52
2019-04-05T08:01:06.535Z,50.45
2019-04-05T08:05:10.169Z,52.75
2019-04-05T08:09:15.679Z,50.55
2019-04-05T08:13:20.615Z,53.20
2019-04-05T08:17:24.390Z,50.50
2019-04-05T08:21:28.004Z,53.15
2019-04-05T08:25:32.764Z,50.83
2019-04-05T08:29:36.357Z,51.65
2019-04-05T08:33:40.074Z,52.98
2019-04-05T08:37:44.211Z,53.50
2019-04-05T08:41:47.921Z,54.42
2019-04-05T08:45:51.528Z,53.78
2019-04-05T08:49:55.139Z,53.23
2019-04-05T08:53:58.861Z,56.73
2019-04-05T08:58:02.497Z,56.70
2019-04-05T09:02:06.088Z,54.63
2019-04-05T09:06:09.809Z,54.65
2019-04-05T09:10:13.723Z,56.47
2019-04-05T09:14:17.335Z,53.73
2019-04-05T09:18:20.953Z,56.83
2019-04-05T09:22:24.629Z,56.92
2019-04-05T09:26:28.278Z,57.83
2019-04-05T09:30:31.996Z,56.18
2019-04-05T09:34:35.610Z,54.70
2019-04-05T09:38:39.327Z,55.15
2019-04-05T09:42:43.046Z,53.58
2019-04-05T09:46:50.875Z,52.88
2019-04-05T09:50:52.013Z,52.40
2019-04-05T09:54:56.859Z,54.50
2019-04-05T09:59:00.470Z,55.83
2019-04-05T10:03:04.288Z,54.08
2019-04-05T10:07:08.515Z,58.60
2019-04-05T10:11:12.230Z,61.25
2019-04-05T10:15:16.360Z,58.48
2019-04-05T10:19:19.970Z,57.45
2019-04-05T10:23:23.584Z,58.42
2019-04-05T10:27:27.202Z,55.83
2019-04-05T10:31:30.812Z,56.30
2019-04-05T10:35:34.427Z,58.45
2019-04-05T10:39:38.042Z,57.25
2019-04-05T10:43:41.757Z,57.67
2019-04-05T10:47:45.327Z,59.50
2019-04-05T10:51:49.191Z,61.02
2019-04-05T10:55:52.911Z,58.73
2019-04-05T10:59:56.620Z,57.90
2019-04-05T11:04:00.345Z,57.58
2019-04-05T11:08:04.063Z,55.15
2019-04-05T11:12:08.757Z,56.92
2019-04-05T11:16:13.438Z,56.60
2019-04-05T11:20:21.780Z,57.83
2019-04-05T11:24:22.815Z,58.08
2019-04-05T11:28:26.531Z,57.00
2019-04-05T11:32:30.760Z,61.00
2019-04-05T11:36:34.850Z,55.52
2019-04-05T11:40:39.040Z,56.02
2019-04-05T11:44:43.337Z,59.50
2019-04-05T11:48:47.912Z,57.15
2019-04-05T11:52:51.694Z,55.20
2019-04-05T11:56:55.561Z,57.33
2019-04-05T12:01:19.026Z,57.33
2019-04-05T12:05:37.150Z,55.17
2019-04-05T12:09:40.840Z,56.37
2019-04-05T12:13:47.410Z,54.77
2019-04-05T12:17:49.777Z,55.78
2019-04-05T12:21:53.381Z,57.10
2019-04-05T12:25:57.098Z,55.05
2019-04-05T12:30:00.712Z,55.30
2019-04-05T12:34:05.361Z,58.06
2019-04-05T12:38:09.071Z,55.10
2019-04-05T12:42:13.033Z,55.27
2019-04-05T12:46:16.913Z,55.73
2019-04-05T12:50:20.625Z,55.50
2019-04-05T12:54:24.340Z,59.67
2019-04-05T12:58:27.952Z,59.50
2019-04-05T13:02:33.887Z,57.88
2019-04-05T13:06:37.023Z,61.37
2019-04-05T13:10:40.795Z,55.43
2019-04-05T13:14:44.309Z,55.58
2019-04-05T13:18:47.970Z,54.60
2019-04-05T13:22:51.587Z,58.20
2019-04-05T13:26:55.298Z,55.33
2019-04-05T13:30:59.020Z,57.73
2019-04-05T13:35:02.592Z,59.23
2019-04-05T13:39:07.679Z,58.05
2019-04-05T13:43:11.292Z,55.08
2019-04-05T13:47:15.058Z,56.83
2019-04-05T13:51:27.707Z,56.23
2019-04-05T13:55:24.079Z,56.45
2019-04-05T13:59:28.511Z,55.67
2019-04-05T14:03:32.583Z,54.35
2019-04-05T14:07:36.351Z,50.75
2019-04-05T14:11:40.143Z,52.80
2019-04-05T14:15:43.929Z,51.75
2019-04-05T14:19:48.748Z,48.92
2019-04-05T14:23:53.915Z,46.92
2019-04-05T14:27:57.512Z,46.70
2019-04-05T14:32:19.470Z,46.85
2019-04-05T14:36:06.668Z,47.78
2019-04-05T14:40:13.868Z,45.20
2019-04-05T14:44:16.352Z,45.75
2019-04-05T14:48:19.963Z,45.73
2019-04-05T14:52:25.644Z,45.90
2019-04-05T14:56:29.316Z,45.88
2019-04-05T15:00:33.370Z,42.75
2019-04-05T15:04:36.992Z,40.65
2019-04-05T15:08:40.817Z,44.60
2019-04-05T15:12:44.413Z,45.50
2019-04-05T15:16:48.131Z,41.95
2019-04-05T15:20:51.709Z,47.45
2019-04-05T15:24:56.380Z,49.33
2019-04-05T15:29:00.098Z,46.28
2019-04-05T15:33:04.306Z,46.25
2019-04-05T15:37:07.938Z,48.42
2019-04-05T15:41:11.657Z,48.75
2019-04-05T15:45:16.612Z,46.23
2019-04-05T15:49:21.560Z,44.13
2019-04-05T15:53:26.286Z,45.67
2019-04-05T15:57:33.462Z,47.10
2019-04-05T16:01:35.354Z,42.62
2019-04-05T16:05:39.174Z,45.90
2019-04-05T16:09:42.787Z,43.45
2019-04-05T16:13:46.403Z,40.78
2019-04-05T16:17:50.017Z,40.52
2019-04-05T16:21:53.583Z,38.23
2019-04-05T16:25:57.240Z,39.38
2019-04-05T16:30:00.864Z,39.35
2019-04-05T16:34:04.676Z,42.50
2019-04-05T16:38:08.312Z,38.50
2019-04-05T16:42:12.009Z,37.65
2019-04-05T16:46:15.635Z,36.08
2019-04-05T16:50:21.387Z,39.85
2019-04-05T16:54:25.001Z,38.50
2019-04-05T16:58:28.716Z,40.85
2019-04-05T17:02:33.405Z,43.02
2019-04-05T17:06:37.141Z,42.35
2019-04-05T17:10:40.918Z,39.75
2019-04-05T17:15:05.477Z,39.45
2019-04-05T17:19:09.094Z,39.45
2019-04-05T17:23:12.710Z,41.45
2019-04-05T17:27:16.298Z,42.27
2019-04-05T17:31:20.013Z,43.55
2019-04-05T17:35:23.629Z,40.60
2019-04-05T17:39:27.343Z,39.30
2019-04-05T17:43:31.060Z,40.33
2019-04-05T17:47:34.777Z,40.23
2019-04-05T17:51:38.389Z,40.15
2019-04-05T17:55:42.356Z,40.70
2019-04-05T17:59:48.383Z,41.20
2019-04-05T18:03:52.101Z,40.50
2019-04-05T18:07:55.815Z,39.92
2019-04-05T18:11:59.433Z,41.10
2019-04-05T18:16:03.358Z,39.53
2019-04-05T18:20:09.894Z,41.15
2019-04-05T18:24:13.648Z,42.78
2019-04-05T18:28:17.270Z,40.25
2019-04-05T18:32:20.882Z,38.45
2019-04-05T18:36:24.694Z,36.90
2019-04-05T18:40:39.487Z,39.80
2019-04-05T18:44:34.589Z,41.15
2019-04-05T18:48:38.212Z,39.70
2019-04-05T18:52:44.245Z,39.95
2019-04-05T18:56:47.988Z,38.85
2019-04-05T19:00:53.563Z,37.60
2019-04-05T19:04:57.497Z,41.35
2019-04-05T19:09:01.624Z,37.65
2019-04-05T19:13:05.766Z,35.13
2019-04-05T19:17:22.851Z,36.05
2019-04-05T19:21:15.851Z,37.55
2019-04-05T19:25:20.124Z,38.40
2019-04-05T19:29:24.355Z,39.83
2019-04-05T19:49:50.840Z,45.55
2019-04-05T19:54:01.328Z,46.68
2019-04-05T19:58:02.979Z,45.23
2019-04-05T20:02:06.798Z,45.98
2019-04-05T20:06:10.720Z,48.40
2019-04-05T20:10:14.651Z,46.77
2019-04-05T20:14:18.286Z,45.60
2019-04-05T20:18:22.040Z,47.43
2019-04-05T20:22:25.687Z,46.27
2019-04-05T20:26:29.301Z,45.57
2019-04-05T20:30:32.916Z,46.50
2019-04-05T20:34:36.734Z,47.05
2019-04-05T20:38:41.378Z,48.78
2019-04-05T20:42:44.986Z,46.30
2019-04-05T20:46:48.905Z,47.64
2019-04-05T20:50:52.519Z,45.63
2019-04-05T20:54:56.239Z,46.50
2019-04-05T20:59:01.281Z,45.75
2019-04-05T21:03:05.103Z,47.33
2019-04-05T21:07:08.719Z,48.92
2019-04-05T21:11:12.432Z,48.85
2019-04-05T21:15:16.043Z,49.85
2019-04-05T21:19:19.607Z,49.77
2019-04-05T21:23:23.273Z,42.58
2019-04-05T21:27:26.897Z,46.77
2019-04-05T21:31:30.618Z,49.53
2019-04-05T21:35:34.229Z,49.63
2019-04-05T21:39:38.763Z,50.17
2019-04-05T21:43:44.527Z,49.60
2019-04-05T21:47:48.142Z,49.42
2019-04-05T21:51:51.753Z,49.10
2019-04-05T21:55:55.469Z,52.03
2019-04-05T21:59:59.082Z,47.25
2019-04-05T22:04:03.122Z,47.33
2019-04-05T22:08:06.730Z,45.10
2019-04-05T22:12:10.338Z,45.45
2019-04-05T22:16:14.253Z,43.75
2019-04-05T22:20:18.804Z,47.03
2019-04-05T22:24:22.406Z,46.75
2019-04-05T22:28:26.325Z,48.73
2019-04-05T22:32:29.937Z,48.73
2019-04-05T22:36:33.654Z,48.52
2019-04-05T22:40:37.269Z,47.10
2019-04-05T22:44:41.618Z,43.38
2019-04-05T22:48:45.518Z,44.60
2019-04-05T22:52:49.131Z,39.27
2019-04-05T22:56:52.682Z,38.67
2019-04-05T23:00:56.405Z,44.05
2019-04-05T23:05:01.015Z,39.05
2019-04-05T23:09:07.039Z,37.00
2019-04-05T23:13:10.786Z,33.78
2019-04-05T23:17:14.736Z,33.98
2019-04-05T23:21:18.326Z,35.90
2019-04-05T23:25:22.506Z,36.00
2019-04-05T23:29:26.264Z,37.42
2019-04-05T23:33:29.876Z,31.73
2019-04-05T23:37:33.592Z,32.90
2019-04-05T23:41:37.305Z,28.10
2019-04-05T23:45:40.923Z,28.95
2019-04-05T23:49:44.639Z,25.43
2019-04-05T23:53:48.253Z,28.73
2019-04-05T23:57:51.868Z,24.80
